sensor_id;sensor_type;location;lat;lon;timestamp;pressure;altitude;pressure_sealevel;temperature;humidity
71344;BME280;59146;43.850;25.948;2022-09-02T00:02:15;100884.19;;;21.14;78.56
71344;BME280;59146;43.850;25.948;2022-09-02T00:04:43;100872.72;;;20.96;79.08
71344;BME280;59146;43.850;25.948;2022-09-02T00:07:09;100865.19;;;20.91;78.83
71344;BME280;59146;43.850;25.948;2022-09-02T00:09:34;100854.56;;;20.91;79.14
71344;BME280;59146;43.850;25.948;2022-09-02T00:12:02;100899.63;;;21.10;79.17
71344;BME280;59146;43.850;25.948;2022-09-02T00:14:33;100807.28;;;20.59;79.17
71344;BME280;59146;43.850;25.948;2022-09-02T00:16:59;100876.69;;;21.09;79.17
71344;BME280;59146;43.850;25.948;2022-09-02T00:19:27;100834.28;;;20.73;79.10
71344;BME280;59146;43.850;25.948;2022-09-02T00:21:54;100847.66;;;20.81;79.22
71344;BME280;59146;43.850;25.948;2022-09-02T00:24:21;100844.63;;;20.76;79.51
71344;BME280;59146;43.850;25.948;2022-09-02T00:26:46;100900.09;;;20.96;79.90
71344;BME280;59146;43.850;25.948;2022-09-02T00:29:12;100892.34;;;20.85;80.20
71344;BME280;59146;43.850;25.948;2022-09-02T00:31:40;100893.44;;;20.92;80.68
71344;BME280;59146;43.850;25.948;2022-09-02T00:34:07;100869.25;;;20.68;80.91
71344;BME280;59146;43.850;25.948;2022-09-02T00:36:32;100790.16;;;20.27;80.74
71344;BME280;59146;43.850;25.948;2022-09-02T00:38:58;100882.25;;;20.89;80.47
71344;BME280;59146;43.850;25.948;2022-09-02T00:41:25;100905.91;;;21.09;79.85
71344;BME280;59146;43.850;25.948;2022-09-02T00:44:13;100876.84;;;20.81;79.79
71344;BME280;59146;43.850;25.948;2022-09-02T00:46:39;100911.53;;;21.06;80.05
71344;BME280;59146;43.850;25.948;2022-09-02T00:49:24;100929.69;;;21.11;79.26
71344;BME280;59146;43.850;25.948;2022-09-02T00:51:52;100894.91;;;20.95;79.69
71344;BME280;59146;43.850;25.948;2022-09-02T00:54:20;100872.22;;;20.83;79.41
71344;BME280;59146;43.850;25.948;2022-09-02T00:56:47;100872.91;;;20.85;79.38
71344;BME280;59146;43.850;25.948;2022-09-02T00:59:21;100918.38;;;21.09;79.21
71344;BME280;59146;43.850;25.948;2022-09-02T01:01:49;100922.16;;;21.06;79.57
71344;BME280;59146;43.850;25.948;2022-09-02T01:04:14;100924.59;;;21.17;79.03
71344;BME280;59146;43.850;25.948;2022-09-02T01:06:41;100931.03;;;21.15;79.42
71344;BME280;59146;43.850;25.948;2022-09-02T01:09:11;100888.13;;;20.92;78.80
71344;BME280;59146;43.850;25.948;2022-09-02T01:11:40;100864.09;;;20.84;78.53
71344;BME280;59146;43.850;25.948;2022-09-02T01:14:06;100916.84;;;21.06;78.89
71344;BME280;59146;43.850;25.948;2022-09-02T01:16:39;100911.09;;;21.01;78.58
71344;BME280;59146;43.850;25.948;2022-09-02T01:19:09;100859.91;;;20.64;78.65
71344;BME280;59146;43.850;25.948;2022-09-02T01:21:36;100884.63;;;20.92;78.59
71344;BME280;59146;43.850;25.948;2022-09-02T01:24:02;100882.69;;;20.84;79.05
71344;BME280;59146;43.850;25.948;2022-09-02T01:26:27;100909.94;;;20.86;78.46
71344;BME280;59146;43.850;25.948;2022-09-02T01:28:53;100875.59;;;20.57;78.32
71344;BME280;59146;43.850;25.948;2022-09-02T01:31:18;100859.75;;;20.66;77.89
71344;BME280;59146;43.850;25.948;2022-09-02T01:33:44;100893.47;;;20.83;78.42
71344;BME280;59146;43.850;25.948;2022-09-02T01:36:09;100756.78;;;19.97;78.29
71344;BME280;59146;43.850;25.948;2022-09-02T01:38:35;100884.09;;;20.61;78.27
71344;BME280;59146;43.850;25.948;2022-09-02T01:41:00;100884.31;;;20.68;78.23
71344;BME280;59146;43.850;25.948;2022-09-02T01:43:27;100901.75;;;20.80;77.86
71344;BME280;59146;43.850;25.948;2022-09-02T01:45:55;100890.78;;;20.65;77.13
71344;BME280;59146;43.850;25.948;2022-09-02T01:48:21;100843.72;;;20.40;77.48
71344;BME280;59146;43.850;25.948;2022-09-02T01:50:50;100912.81;;;20.75;77.51
71344;BME280;59146;43.850;25.948;2022-09-02T01:53:16;100893.22;;;20.49;76.94
71344;BME280;59146;43.850;25.948;2022-09-02T01:55:42;100913.69;;;20.66;77.34
71344;BME280;59146;43.850;25.948;2022-09-02T01:58:07;100826.50;;;20.07;76.57
71344;BME280;59146;43.850;25.948;2022-09-02T02:00:33;100901.28;;;20.57;77.13
71344;BME280;59146;43.850;25.948;2022-09-02T02:02:58;100916.66;;;20.53;75.33
71344;BME280;59146;43.850;25.948;2022-09-02T02:05:24;100867.66;;;20.21;74.51
71344;BME280;59146;43.850;25.948;2022-09-02T02:07:50;100855.78;;;20.25;72.71
71344;BME280;59146;43.850;25.948;2022-09-02T02:10:17;100894.50;;;20.45;71.95
71344;BME280;59146;43.850;25.948;2022-09-02T02:12:43;100734.06;;;19.48;71.42
71344;BME280;59146;43.850;25.948;2022-09-02T02:15:14;100913.47;;;20.50;70.16
71344;BME280;59146;43.850;25.948;2022-09-02T02:17:39;100927.13;;;20.55;68.27
71344;BME280;59146;43.850;25.948;2022-09-02T02:20:07;100865.56;;;20.15;67.91
71344;BME280;59146;43.850;25.948;2022-09-02T02:22:33;100884.38;;;20.21;67.90
71344;BME280;59146;43.850;25.948;2022-09-02T02:24:58;100829.63;;;19.83;67.78
71344;BME280;59146;43.850;25.948;2022-09-02T02:27:24;100786.47;;;19.54;67.31
71344;BME280;59146;43.850;25.948;2022-09-02T02:29:49;100938.66;;;20.36;67.40
71344;BME280;59146;43.850;25.948;2022-09-02T02:32:15;100917.47;;;20.27;67.63
71344;BME280;59146;43.850;25.948;2022-09-02T02:34:43;100920.50;;;20.32;67.71
71344;BME280;59146;43.850;25.948;2022-09-02T02:37:08;100901.00;;;20.14;67.52
71344;BME280;59146;43.850;25.948;2022-09-02T02:39:37;100929.63;;;20.20;68.22
71344;BME280;59146;43.850;25.948;2022-09-02T02:42:02;100956.84;;;20.12;68.57
71344;BME280;59146;43.850;25.948;2022-09-02T02:44:28;100876.56;;;19.64;69.13
71344;BME280;59146;43.850;25.948;2022-09-02T02:46:53;100873.63;;;19.57;68.80
71344;BME280;59146;43.850;25.948;2022-09-02T02:49:19;100947.94;;;20.04;69.20
71344;BME280;59146;43.850;25.948;2022-09-02T02:51:46;100937.19;;;20.05;68.50
71344;BME280;59146;43.850;25.948;2022-09-02T02:54:11;100930.22;;;19.95;69.05
71344;BME280;59146;43.850;25.948;2022-09-02T02:56:39;100897.47;;;19.67;68.88
71344;BME280;59146;43.850;25.948;2022-09-02T02:59:04;100934.13;;;19.91;68.66
71344;BME280;59146;43.850;25.948;2022-09-02T03:01:30;100940.44;;;19.90;67.69
71344;BME280;59146;43.850;25.948;2022-09-02T03:03:56;100925.78;;;19.86;67.63
71344;BME280;59146;43.850;25.948;2022-09-02T03:06:22;100929.66;;;19.91;67.33
71344;BME280;59146;43.850;25.948;2022-09-02T03:08:47;100949.66;;;19.86;66.96
71344;BME280;59146;43.850;25.948;2022-09-02T03:11:14;100915.91;;;19.68;66.69
71344;BME280;59146;43.850;25.948;2022-09-02T03:13:40;100906.25;;;19.48;66.45
71344;BME280;59146;43.850;25.948;2022-09-02T03:16:06;100957.59;;;19.86;66.60
71344;BME280;59146;43.850;25.948;2022-09-02T03:18:32;100922.56;;;19.63;65.79
71344;BME280;59146;43.850;25.948;2022-09-02T03:20:58;100867.34;;;19.30;65.17
71344;BME280;59146;43.850;25.948;2022-09-02T03:23:24;100933.16;;;19.63;64.91
71344;BME280;59146;43.850;25.948;2022-09-02T03:25:49;100946.03;;;19.77;65.33
71344;BME280;59146;43.850;25.948;2022-09-02T03:28:15;100920.78;;;19.63;64.93
71344;BME280;59146;43.850;25.948;2022-09-02T03:30:41;100886.91;;;19.38;65.13
71344;BME280;59146;43.850;25.948;2022-09-02T03:33:07;100906.69;;;19.34;64.26
71344;BME280;59146;43.850;25.948;2022-09-02T03:35:37;100916.84;;;19.48;64.49
71344;BME280;59146;43.850;25.948;2022-09-02T03:38:03;100892.88;;;19.31;64.49
71344;BME280;59146;43.850;25.948;2022-09-02T03:40:29;100884.94;;;19.40;64.59
71344;BME280;59146;43.850;25.948;2022-09-02T03:42:54;100934.72;;;19.65;63.61
71344;BME280;59146;43.850;25.948;2022-09-02T03:45:21;100968.47;;;19.83;63.78
71344;BME280;59146;43.850;25.948;2022-09-02T03:47:48;100919.25;;;19.51;64.05
71344;BME280;59146;43.850;25.948;2022-09-02T03:50:20;100946.00;;;19.67;64.41
71344;BME280;59146;43.850;25.948;2022-09-02T03:52:47;100947.97;;;19.65;64.80
71344;BME280;59146;43.850;25.948;2022-09-02T03:55:13;100949.66;;;19.66;64.48
71344;BME280;59146;43.850;25.948;2022-09-02T03:57:38;100928.31;;;19.58;64.58
71344;BME280;59146;43.850;25.948;2022-09-02T04:00:06;100824.56;;;18.86;64.49
71344;BME280;59146;43.850;25.948;2022-09-02T04:02:32;100909.91;;;19.47;63.97
71344;BME280;59146;43.850;25.948;2022-09-02T04:04:58;100908.91;;;19.48;64.81
71344;BME280;59146;43.850;25.948;2022-09-02T04:07:24;100928.44;;;19.66;64.30
71344;BME280;59146;43.850;25.948;2022-09-02T04:09:49;100909.78;;;19.58;64.24
71344;BME280;59146;43.850;25.948;2022-09-02T04:12:15;100894.84;;;19.57;63.98
71344;BME280;59146;43.850;25.948;2022-09-02T04:14:40;100842.53;;;19.21;63.62
71344;BME280;59146;43.850;25.948;2022-09-02T04:17:06;100955.63;;;19.88;64.16
71344;BME280;59146;43.850;25.948;2022-09-02T04:19:32;100940.53;;;19.88;63.97
71344;BME280;59146;43.850;25.948;2022-09-02T04:21:57;100981.56;;;20.03;63.57
71344;BME280;59146;43.850;25.948;2022-09-02T04:24:23;100913.25;;;19.68;64.14
71344;BME280;59146;43.850;25.948;2022-09-02T04:26:49;100960.78;;;20.08;62.97
71344;BME280;59146;43.850;25.948;2022-09-02T04:29:14;100952.94;;;20.07;63.27
71344;BME280;59146;43.850;25.948;2022-09-02T04:31:40;100959.63;;;20.30;62.21
71344;BME280;59146;43.850;25.948;2022-09-02T04:34:05;100955.25;;;20.48;61.25
71344;BME280;59146;43.850;25.948;2022-09-02T04:36:31;100937.78;;;21.09;59.81
71344;BME280;59146;43.850;25.948;2022-09-02T04:38:57;100940.13;;;21.12;58.56
71344;BME280;59146;43.850;25.948;2022-09-02T04:41:25;100909.13;;;20.86;59.34
71344;BME280;59146;43.850;25.948;2022-09-02T04:43:54;100962.06;;;21.14;58.96
71344;BME280;59146;43.850;25.948;2022-09-02T04:46:20;100930.19;;;21.14;57.92
71344;BME280;59146;43.850;25.948;2022-09-02T04:48:46;100943.47;;;21.14;58.21
71344;BME280;59146;43.850;25.948;2022-09-02T04:51:15;100837.63;;;20.75;56.54
71344;BME280;59146;43.850;25.948;2022-09-02T04:53:42;100974.84;;;21.64;56.40
71344;BME280;59146;43.850;25.948;2022-09-02T04:56:09;100882.69;;;21.47;55.08
71344;BME280;59146;43.850;25.948;2022-09-02T04:58:36;100966.63;;;22.10;54.91
71344;BME280;59146;43.850;25.948;2022-09-02T05:01:07;100978.00;;;21.59;56.37
71344;BME280;59146;43.850;25.948;2022-09-02T05:03:33;100977.66;;;21.27;56.80
71344;BME280;59146;43.850;25.948;2022-09-02T05:06:04;100983.84;;;21.18;57.27
71344;BME280;59146;43.850;25.948;2022-09-02T05:08:30;100987.25;;;21.10;57.09
71344;BME280;59146;43.850;25.948;2022-09-02T05:10:56;100970.72;;;20.89;58.10
71344;BME280;59146;43.850;25.948;2022-09-02T05:13:22;101041.75;;;21.14;58.30
71344;BME280;59146;43.850;25.948;2022-09-02T05:15:50;100937.13;;;20.71;58.34
71344;BME280;59146;43.850;25.948;2022-09-02T05:18:15;101008.31;;;20.85;58.97
71344;BME280;59146;43.850;25.948;2022-09-02T05:20:41;100983.09;;;20.71;58.39
71344;BME280;59146;43.850;25.948;2022-09-02T05:23:11;101033.94;;;21.13;58.59
71344;BME280;59146;43.850;25.948;2022-09-02T05:25:38;101009.94;;;20.95;58.36
71344;BME280;59146;43.850;25.948;2022-09-02T05:28:05;101042.03;;;21.11;58.12
71344;BME280;59146;43.850;25.948;2022-09-02T05:30:39;101019.13;;;21.10;58.42
71344;BME280;59146;43.850;25.948;2022-09-02T05:33:06;100918.47;;;20.53;58.03
71344;BME280;59146;43.850;25.948;2022-09-02T05:35:31;100958.13;;;20.91;57.39
71344;BME280;59146;43.850;25.948;2022-09-02T05:37:57;100975.69;;;21.02;57.08
71344;BME280;59146;43.850;25.948;2022-09-02T05:40:23;100935.50;;;20.87;56.55
71344;BME280;59146;43.850;25.948;2022-09-02T05:42:49;100969.09;;;21.33;56.08
71344;BME280;59146;43.850;25.948;2022-09-02T05:45:14;100949.72;;;21.76;54.39
71344;BME280;59146;43.850;25.948;2022-09-02T05:47:39;100987.09;;;22.35;52.98
71344;BME280;59146;43.850;25.948;2022-09-02T05:50:06;100884.13;;;22.28;51.13
71344;BME280;59146;43.850;25.948;2022-09-02T05:52:31;101013.84;;;23.68;48.90
71344;BME280;59146;43.850;25.948;2022-09-02T05:54:57;100941.19;;;23.01;48.71
71344;BME280;59146;43.850;25.948;2022-09-02T05:57:23;100972.16;;;23.51;47.89
71344;BME280;59146;43.850;25.948;2022-09-02T05:59:48;100965.00;;;23.76;46.82
71344;BME280;59146;43.850;25.948;2022-09-02T06:02:20;100999.88;;;24.07;46.92
71344;BME280;59146;43.850;25.948;2022-09-02T06:04:48;101002.56;;;24.15;46.45
71344;BME280;59146;43.850;25.948;2022-09-02T06:07:14;101005.38;;;23.97;46.12
71344;BME280;59146;43.850;25.948;2022-09-02T06:09:41;101006.03;;;23.91;46.37
71344;BME280;59146;43.850;25.948;2022-09-02T06:12:09;101015.25;;;24.13;46.09
71344;BME280;59146;43.850;25.948;2022-09-02T06:14:35;101001.69;;;23.66;46.33
71344;BME280;59146;43.850;25.948;2022-09-02T06:17:02;101016.22;;;23.30;47.43
71344;BME280;59146;43.850;25.948;2022-09-02T06:19:28;100985.91;;;23.31;47.88
71344;BME280;59146;43.850;25.948;2022-09-02T06:21:55;101030.91;;;23.00;48.90
71344;BME280;59146;43.850;25.948;2022-09-02T06:24:21;100998.06;;;22.58;49.35
71344;BME280;59146;43.850;25.948;2022-09-02T06:26:47;100979.06;;;22.53;49.15
71344;BME280;59146;43.850;25.948;2022-09-02T06:29:13;100879.38;;;21.88;49.64
71344;BME280;59146;43.850;25.948;2022-09-02T06:31:41;100955.78;;;22.80;48.77
71344;BME280;59146;43.850;25.948;2022-09-02T06:34:07;101020.47;;;23.48;47.66
71344;BME280;59146;43.850;25.948;2022-09-02T06:36:36;100966.47;;;23.38;47.33
71344;BME280;59146;43.850;25.948;2022-09-02T06:39:02;101006.38;;;23.22;47.89
71344;BME280;59146;43.850;25.948;2022-09-02T06:41:30;101027.88;;;23.21;48.24
71344;BME280;59146;43.850;25.948;2022-09-02T06:43:58;101031.13;;;23.07;49.13
71344;BME280;59146;43.850;25.948;2022-09-02T06:46:31;101017.91;;;23.31;47.80
71344;BME280;59146;43.850;25.948;2022-09-02T06:48:57;100959.97;;;23.33;47.37
71344;BME280;59146;43.850;25.948;2022-09-02T06:51:27;100974.63;;;23.37;47.82
71344;BME280;59146;43.850;25.948;2022-09-02T06:53:53;101011.59;;;23.40;47.97
71344;BME280;59146;43.850;25.948;2022-09-02T06:56:18;101000.56;;;23.27;47.34
71344;BME280;59146;43.850;25.948;2022-09-02T06:58:44;101036.03;;;23.85;46.56
71344;BME280;59146;43.850;25.948;2022-09-02T07:01:23;101034.44;;;23.42;47.43
71344;BME280;59146;43.850;25.948;2022-09-02T07:03:49;101017.59;;;23.34;47.39
71344;BME280;59146;43.850;25.948;2022-09-02T07:06:39;100995.31;;;23.43;47.65
71344;BME280;59146;43.850;25.948;2022-09-02T07:09:07;101040.06;;;24.05;46.90
71344;BME280;59146;43.850;25.948;2022-09-02T07:11:33;100986.94;;;23.38;47.07
71344;BME280;59146;43.850;25.948;2022-09-02T07:13:59;101000.63;;;23.43;47.68
71344;BME280;59146;43.850;25.948;2022-09-02T07:16:31;100947.50;;;23.65;46.65
71344;BME280;59146;43.850;25.948;2022-09-02T07:18:58;100954.00;;;24.11;45.85
71344;BME280;59146;43.850;25.948;2022-09-02T07:21:26;101036.59;;;24.21;46.36
71344;BME280;59146;43.850;25.948;2022-09-02T07:23:53;101043.41;;;24.07;46.71
71344;BME280;59146;43.850;25.948;2022-09-02T07:26:19;101028.34;;;23.82;47.91
71344;BME280;59146;43.850;25.948;2022-09-02T07:28:44;101033.75;;;24.06;47.61
71344;BME280;59146;43.850;25.948;2022-09-02T07:31:14;101042.41;;;24.32;47.39
71344;BME280;59146;43.850;25.948;2022-09-02T07:33:41;101026.06;;;24.11;47.63
71344;BME280;59146;43.850;25.948;2022-09-02T07:36:07;101005.00;;;23.68;47.99
71344;BME280;59146;43.850;25.948;2022-09-02T07:38:34;100972.03;;;23.77;48.05
71344;BME280;59146;43.850;25.948;2022-09-02T07:41:00;100989.84;;;23.93;48.08
71344;BME280;59146;43.850;25.948;2022-09-02T07:43:28;100973.00;;;23.92;48.32
71344;BME280;59146;43.850;25.948;2022-09-02T07:45:55;101010.53;;;24.31;47.56
71344;BME280;59146;43.850;25.948;2022-09-02T07:48:24;101045.06;;;24.32;47.81
71344;BME280;59146;43.850;25.948;2022-09-02T07:50:50;101033.06;;;24.36;48.20
71344;BME280;59146;43.850;25.948;2022-09-02T07:53:17;100987.84;;;24.03;47.98
71344;BME280;59146;43.850;25.948;2022-09-02T07:55:43;101002.03;;;23.95;48.43
71344;BME280;59146;43.850;25.948;2022-09-02T07:58:10;101020.69;;;24.03;48.82
71344;BME280;59146;43.850;25.948;2022-09-02T08:00:37;101031.69;;;23.84;49.53
71344;BME280;59146;43.850;25.948;2022-09-02T08:03:04;101004.84;;;23.69;49.54
71344;BME280;59146;43.850;25.948;2022-09-02T08:05:31;100983.59;;;23.36;49.98
71344;BME280;59146;43.850;25.948;2022-09-02T08:07:57;100913.91;;;23.07;50.26
71344;BME280;59146;43.850;25.948;2022-09-02T08:10:25;101048.22;;;23.96;50.26
71344;BME280;59146;43.850;25.948;2022-09-02T08:12:54;101032.75;;;24.07;49.55
71344;BME280;59146;43.850;25.948;2022-09-02T08:15:20;101034.72;;;24.21;50.02
71344;BME280;59146;43.850;25.948;2022-09-02T08:17:47;101043.72;;;24.44;49.44
71344;BME280;59146;43.850;25.948;2022-09-02T08:20:13;100987.72;;;24.12;49.49
71344;BME280;59146;43.850;25.948;2022-09-02T08:22:39;100885.66;;;23.78;48.66
71344;BME280;59146;43.850;25.948;2022-09-02T08:25:06;100967.81;;;24.39;48.36
71344;BME280;59146;43.850;25.948;2022-09-02T08:27:32;100972.28;;;24.55;48.21
71344;BME280;59146;43.850;25.948;2022-09-02T08:29:58;100973.88;;;24.72;48.35
71344;BME280;59146;43.850;25.948;2022-09-02T08:32:25;101021.53;;;25.15;47.78
71344;BME280;59146;43.850;25.948;2022-09-02T08:34:50;100984.59;;;24.80;47.79
71344;BME280;59146;43.850;25.948;2022-09-02T08:37:16;100997.91;;;24.72;48.05
71344;BME280;59146;43.850;25.948;2022-09-02T08:39:43;101014.78;;;24.88;48.30
71344;BME280;59146;43.850;25.948;2022-09-02T08:42:22;101028.94;;;24.97;48.15
71344;BME280;59146;43.850;25.948;2022-09-02T08:44:55;101041.66;;;24.87;48.69
71344;BME280;59146;43.850;25.948;2022-09-02T08:47:25;101014.81;;;24.64;48.77
71344;BME280;59146;43.850;25.948;2022-09-02T08:49:59;100978.59;;;24.62;48.29
71344;BME280;59146;43.850;25.948;2022-09-02T08:52:49;101034.28;;;25.05;47.81
71344;BME280;59146;43.850;25.948;2022-09-02T08:55:23;100961.28;;;24.50;48.36
71344;BME280;59146;43.850;25.948;2022-09-02T08:57:52;100993.13;;;24.75;48.35
71344;BME280;59146;43.850;25.948;2022-09-02T09:00:20;100977.69;;;24.93;48.00
71344;BME280;59146;43.850;25.948;2022-09-02T09:03:00;100989.44;;;25.15;47.65
71344;BME280;59146;43.850;25.948;2022-09-02T09:05:36;100982.94;;;25.17;47.65
71344;BME280;59146;43.850;25.948;2022-09-02T09:08:15;100978.09;;;25.13;47.62
71344;BME280;59146;43.850;25.948;2022-09-02T09:21:30;100964.91;;;25.87;46.44
71344;BME280;59146;43.850;25.948;2022-09-02T09:23:59;100954.84;;;25.89;46.96
71344;BME280;59146;43.850;25.948;2022-09-02T09:26:27;100881.81;;;25.66;46.62
71344;BME280;59146;43.850;25.948;2022-09-02T09:28:56;100908.50;;;25.52;46.39
71344;BME280;59146;43.850;25.948;2022-09-02T09:31:27;100920.47;;;25.41;47.46
71344;BME280;59146;43.850;25.948;2022-09-02T09:34:05;100953.53;;;25.85;46.74
71344;BME280;59146;43.850;25.948;2022-09-02T09:41:49;100901.03;;;26.51;46.03
71344;BME280;59146;43.850;25.948;2022-09-02T09:44:44;100884.13;;;26.50;45.47
71344;BME280;59146;43.850;25.948;2022-09-02T09:47:20;100939.81;;;26.84;45.77
71344;BME280;59146;43.850;25.948;2022-09-02T09:49:51;100924.13;;;26.81;45.72
71344;BME280;59146;43.850;25.948;2022-09-02T09:52:28;100928.41;;;27.11;44.64
71344;BME280;59146;43.850;25.948;2022-09-02T09:57:31;100876.31;;;27.20;44.74
71344;BME280;59146;43.850;25.948;2022-09-02T09:59:57;100920.19;;;27.34;44.63
71344;BME280;59146;43.850;25.948;2022-09-02T10:02:26;100923.53;;;27.57;44.22
71344;BME280;59146;43.850;25.948;2022-09-02T10:04:54;100914.66;;;27.57;44.00
71344;BME280;59146;43.850;25.948;2022-09-02T10:07:41;100886.75;;;27.51;43.69
71344;BME280;59146;43.850;25.948;2022-09-02T10:12:41;100897.44;;;27.30;44.02
71344;BME280;59146;43.850;25.948;2022-09-02T10:15:07;100851.81;;;27.44;44.08
71344;BME280;59146;43.850;25.948;2022-09-02T10:17:43;100907.56;;;27.49;45.11
71344;BME280;59146;43.850;25.948;2022-09-02T10:20:43;100854.47;;;27.02;45.39
71344;BME280;59146;43.850;25.948;2022-09-02T10:35:07;100840.63;;;27.20;45.03
71344;BME280;59146;43.850;25.948;2022-09-02T10:40:43;100837.50;;;27.16;45.19
71344;BME280;59146;43.850;25.948;2022-09-02T10:44:04;100816.41;;;26.92;44.66
71344;BME280;59146;43.850;25.948;2022-09-02T10:46:06;100779.94;;;26.91;45.31
71344;BME280;59146;43.850;25.948;2022-09-02T10:48:46;100837.34;;;27.39;45.09
71344;BME280;59146;43.850;25.948;2022-09-02T10:51:37;100831.63;;;27.48;45.08
71344;BME280;59146;43.850;25.948;2022-09-02T10:56:59;100833.53;;;27.82;44.86
71344;BME280;59146;43.850;25.948;2022-09-02T10:59:34;100796.69;;;27.70;44.39
71344;BME280;59146;43.850;25.948;2022-09-02T11:04:56;100782.06;;;27.44;45.24
71344;BME280;59146;43.850;25.948;2022-09-02T11:07:29;100795.78;;;27.84;44.84
71344;BME280;59146;43.850;25.948;2022-09-02T11:10:28;100652.50;;;27.16;44.88
71344;BME280;59146;43.850;25.948;2022-09-02T11:13:13;100799.00;;;28.00;45.39
71344;BME280;59146;43.850;25.948;2022-09-02T11:16:13;100811.50;;;28.21;45.07
71344;BME280;59146;43.850;25.948;2022-09-02T11:26:34;100788.69;;;28.04;45.57
71344;BME280;59146;43.850;25.948;2022-09-02T11:29:21;100784.00;;;27.57;46.34
71344;BME280;59146;43.850;25.948;2022-09-02T11:32:01;100817.47;;;27.89;46.25
71344;BME280;59146;43.850;25.948;2022-09-02T11:37:03;100800.72;;;28.14;45.06
71344;BME280;59146;43.850;25.948;2022-09-02T11:39:43;100809.75;;;28.00;46.06
71344;BME280;59146;43.850;25.948;2022-09-02T11:53:28;100814.06;;;28.42;45.04
71344;BME280;59146;43.850;25.948;2022-09-02T11:56:03;100695.59;;;27.77;44.31
71344;BME280;59146;43.850;25.948;2022-09-02T11:58:40;100793.31;;;28.23;45.33
71344;BME280;59146;43.850;25.948;2022-09-02T12:01:20;100804.13;;;28.43;45.64
71344;BME280;59146;43.850;25.948;2022-09-02T12:06:35;100736.00;;;27.96;45.38
71344;BME280;59146;43.850;25.948;2022-09-02T12:09:04;100775.78;;;27.93;46.63
71344;BME280;59146;43.850;25.948;2022-09-02T12:11:44;100760.97;;;27.97;46.82
71344;BME280;59146;43.850;25.948;2022-09-02T12:19:48;100764.47;;;26.72;52.09
71344;BME280;59146;43.850;25.948;2022-09-02T12:24:56;100779.38;;;26.96;51.74
71344;BME280;59146;43.850;25.948;2022-09-02T12:29:49;100746.28;;;26.02;53.68
71344;BME280;59146;43.850;25.948;2022-09-02T12:40:53;100785.88;;;25.63;55.27
71344;BME280;59146;43.850;25.948;2022-09-02T12:43:54;100787.75;;;25.40;56.29
71344;BME280;59146;43.850;25.948;2022-09-02T12:49:26;100784.91;;;25.42;57.72
71344;BME280;59146;43.850;25.948;2022-09-02T12:52:01;100781.84;;;25.30;57.34
71344;BME280;59146;43.850;25.948;2022-09-02T12:54:44;100809.53;;;25.14;58.56
71344;BME280;59146;43.850;25.948;2022-09-02T12:57:17;100824.84;;;25.20;58.76
71344;BME280;59146;43.850;25.948;2022-09-02T12:59:45;100830.41;;;25.34;58.49
71344;BME280;59146;43.850;25.948;2022-09-02T13:02:27;100838.25;;;25.35;57.88
71344;BME280;59146;43.850;25.948;2022-09-02T13:10:52;100898.00;;;23.63;70.86
71344;BME280;59146;43.850;25.948;2022-09-02T13:27:14;100892.59;;;22.31;78.59
71344;BME280;59146;43.850;25.948;2022-09-02T13:29:56;100899.41;;;22.00;82.47
71344;BME280;59146;43.850;25.948;2022-09-02T13:32:28;100847.66;;;21.51;83.97
71344;BME280;59146;43.850;25.948;2022-09-02T13:34:56;100882.75;;;21.55;84.64
71344;BME280;59146;43.850;25.948;2022-09-02T13:37:42;100845.09;;;21.24;87.70
71344;BME280;59146;43.850;25.948;2022-09-02T13:42:57;100918.44;;;21.52;87.81
71344;BME280;59146;43.850;25.948;2022-09-02T13:45:23;100919.50;;;21.42;87.14
71344;BME280;59146;43.850;25.948;2022-09-02T13:47:52;100928.38;;;21.32;88.40
71344;BME280;59146;43.850;25.948;2022-09-02T13:50:21;100918.97;;;21.20;88.43
71344;BME280;59146;43.850;25.948;2022-09-02T13:55:23;100917.75;;;21.32;88.89
71344;BME280;59146;43.850;25.948;2022-09-02T13:57:57;100939.78;;;21.25;86.75
71344;BME280;59146;43.850;25.948;2022-09-02T14:00:33;100868.53;;;20.93;86.14
71344;BME280;59146;43.850;25.948;2022-09-02T14:03:04;100883.06;;;21.16;86.73
71344;BME280;59146;43.850;25.948;2022-09-02T14:05:32;100837.47;;;20.76;86.52
71344;BME280;59146;43.850;25.948;2022-09-02T14:08:02;100796.53;;;20.34;87.60
71344;BME280;59146;43.850;25.948;2022-09-02T14:10:30;100829.25;;;20.25;89.95
71344;BME280;59146;43.850;25.948;2022-09-02T14:13:00;100803.13;;;19.93;90.99
71344;BME280;59146;43.850;25.948;2022-09-02T14:15:28;100896.38;;;20.16;90.76
71344;BME280;59146;43.850;25.948;2022-09-02T14:18:20;100895.06;;;20.02;91.63
71344;BME280;59146;43.850;25.948;2022-09-02T14:23:47;100898.50;;;20.03;93.21
71344;BME280;59146;43.850;25.948;2022-09-02T14:26:19;100837.47;;;19.75;93.96
71344;BME280;59146;43.850;25.948;2022-09-02T14:28:50;100883.06;;;19.89;92.37
71344;BME280;59146;43.850;25.948;2022-09-02T14:31:27;100795.25;;;19.55;93.05
71344;BME280;59146;43.850;25.948;2022-09-02T14:33:57;100843.34;;;19.79;92.19
71344;BME280;59146;43.850;25.948;2022-09-02T14:38:56;100811.16;;;19.64;91.92
71344;BME280;59146;43.850;25.948;2022-09-02T14:41:24;100850.78;;;20.03;91.78
71344;BME280;59146;43.850;25.948;2022-09-02T14:43:53;100842.03;;;20.02;90.98
71344;BME280;59146;43.850;25.948;2022-09-02T14:46:31;100831.25;;;20.04;90.13
71344;BME280;59146;43.850;25.948;2022-09-02T14:49:09;100849.91;;;20.21;89.77
71344;BME280;59146;43.850;25.948;2022-09-02T14:51:43;100859.63;;;20.40;90.83